| time (UTC) | temp F | wind direction | speed MPH | gust MPH | rain 1hr in | rain 24hr in | rain mn in | humidity % | barometer mb |
| 20260502151616 | 50 | 290 | 0.0 | 4.0 | 0.00 | 0.00 | 0.00 | 52 | 1021.7 |
| 20260502150635 | 50 | 306 | 3.0 | 4.0 | 0.00 | 0.00 | 0.00 | 50 | 1021.7 |
| 20260502130621 | 42 | 142 | 1.0 | 2.0 | 0.00 | 0.00 | 0.00 | 58 | 1021.6 |
| 20260502123632 | 41 | 217 | 3.0 | 4.0 | 0.00 | 0.00 | 0.00 | 58 | 1021.4 |
| 20260502122630 | 41 | 200 | 4.0 | 5.0 | 0.00 | 0.00 | 0.00 | 57 | 1021.4 |
| 20260502121653 | 42 | 189 | 3.0 | 4.0 | 0.00 | 0.00 | 0.00 | 56 | 1021.5 |
| 20260502120633 | 42 | 186 | 2.0 | 5.0 | 0.00 | 0.00 | 0.00 | 58 | 1021.4 |
| 20260502115624 | 41 | 188 | 2.0 | 3.0 | 0.00 | 0.00 | 0.00 | 60 | 1021.3 |
| 20260502114645 | 40 | 209 | 2.0 | 3.0 | 0.00 | 0.00 | 0.00 | 63 | 1021.3 |
| 20260502113621 | 40 | 271 | 1.0 | 4.0 | 0.00 | 0.00 | 0.00 | 62 | 1021.4 |
| 20260502112621 | 43 | 210 | 4.0 | 6.0 | 0.00 | 0.00 | 0.00 | 55 | 1021.5 |
| 20260502111619 | 43 | 175 | 4.0 | 7.0 | 0.00 | 0.00 | 0.00 | 56 | 1021.4 |
| 20260502110620 | 43 | 171 | 5.0 | 8.0 | 0.00 | 0.00 | 0.00 | 56 | 1021.5 |
| 20260502105615 | 42 | 177 | 2.0 | 5.0 | 0.00 | 0.00 | 0.00 | 57 | 1021.4 |
| 20260502104615 | 42 | 204 | 3.0 | 5.0 | 0.00 | 0.00 | 0.00 | 58 | 1021.6 |
| 20260502103655 | 43 | 184 | 3.0 | 5.0 | 0.00 | 0.00 | 0.00 | 56 | 1021.5 |
| 20260502102633 | 44 | 189 | 3.0 | 6.0 | 0.00 | 0.00 | 0.00 | 55 | 1021.6 |
| 20260502101636 | 43 | 194 | 5.0 | 8.0 | 0.00 | 0.00 | 0.00 | 56 | 1021.5 |
| 20260502100616 | 43 | 200 | 3.0 | 6.0 | 0.00 | 0.00 | 0.00 | 56 | 1021.4 |
| 20260502090632 | 44 | 176 | 2.0 | 4.0 | 0.00 | 0.00 | 0.00 | 56 | 1021.3 |
| 20260502070640 | 48 | 163 | 4.0 | 5.0 | 0.00 | 0.00 | 0.00 | 48 | 1021.2 |
| 20260502065631 | 47 | 202 | 3.0 | 5.0 | 0.00 | 0.00 | 0.00 | 50 | 1021.0 |
| 20260502064630 | 48 | 190 | 5.0 | 7.0 | 0.00 | 0.00 | 0.00 | 49 | 1021.0 |
| 20260502063629 | 49 | 174 | 3.0 | 6.0 | 0.00 | 0.00 | 0.00 | 47 | 1020.9 |
| 20260502062628 | 49 | 140 | 3.0 | 5.0 | 0.00 | 0.00 | 0.00 | 47 | 1020.9 |
| 20260502061626 | 50 | 192 | 0.0 | 3.0 | 0.00 | 0.00 | 0.00 | 45 | 1020.7 |
| 20260502060634 | 50 | 138 | 1.0 | 4.0 | 0.00 | 0.00 | 0.00 | 44 | 1020.6 |
| 20260502055646 | 50 | 157 | 3.0 | 5.0 | 0.00 | 0.00 | 0.00 | 45 | 1020.5 |
| 20260502054624 | 50 | 190 | 5.0 | 8.0 | 0.00 | 0.00 | 0.00 | 45 | 1020.5 |
| 20260502053628 | 50 | 159 | 5.0 | 7.0 | 0.00 | 0.00 | 0.00 | 45 | 1020.4 |
| 20260502052631 | 51 | 185 | 3.0 | 6.0 | 0.00 | 0.00 | 0.00 | 44 | 1020.5 |
| 20260502051631 | 51 | 174 | 3.0 | 6.0 | 0.00 | 0.00 | 0.00 | 44 | 1020.4 |
| 20260502050631 | 51 | 182 | 5.0 | 7.0 | 0.00 | 0.00 | 0.00 | 44 | 1020.4 |
| 20260502045622 | 51 | 186 | 4.0 | 8.0 | 0.00 | 0.00 | 0.00 | 44 | 1020.4 |
| 20260502044623 | 51 | 191 | 4.0 | 7.0 | 0.00 | 0.00 | 0.00 | 44 | 1020.4 |
| 20260502043626 | 50 | 173 | 5.0 | 9.0 | 0.00 | 0.00 | 0.00 | 45 | 1020.4 |
| 20260502042624 | 51 | 154 | 7.0 | 10.0 | 0.00 | 0.00 | 0.00 | 43 | 1020.3 |
| 20260502041644 | 52 | 150 | 4.0 | 7.0 | 0.00 | 0.00 | 0.00 | 43 | 1020.4 |
| 20260502040621 | 53 | 165 | 4.0 | 6.0 | 0.00 | 0.00 | 0.00 | 41 | 1020.4 |
| 20260502035633 | 54 | 159 | 3.0 | 5.0 | 0.00 | 0.00 | 0.00 | 39 | 1020.3 |
| 20260502034633 | 54 | 161 | 4.0 | 7.0 | 0.00 | 0.00 | 0.00 | 38 | 1020.2 |
| 20260502033631 | 53 | 161 | 5.0 | 8.0 | 0.00 | 0.00 | 0.00 | 39 | 1019.9 |
| 20260502032651 | 53 | 170 | 5.0 | 8.0 | 0.00 | 0.00 | 0.00 | 42 | 1019.9 |
| 20260502031634 | 54 | 196 | 5.0 | 8.0 | 0.00 | 0.00 | 0.00 | 41 | 1019.7 |
| 20260502030633 | 55 | 170 | 5.0 | 6.0 | 0.00 | 0.00 | 0.00 | 37 | 1019.5 |
| 20260502025626 | 55 | 180 | 5.0 | 6.0 | 0.00 | 0.00 | 0.00 | 38 | 1019.3 |
| 20260502024626 | 56 | 167 | 5.0 | 6.0 | 0.00 | 0.00 | 0.00 | 37 | 1019.2 |
| 20260502023627 | 56 | 168 | 4.0 | 6.0 | 0.00 | 0.00 | 0.00 | 38 | 1019.2 |
| 20260502022627 | 56 | 162 | 4.0 | 5.0 | 0.00 | 0.00 | 0.00 | 39 | 1019.3 |
| 20260502021626 | 57 | 173 | 5.0 | 5.0 | 0.00 | 0.00 | 0.00 | 38 | 1019.2 |
| 20260502020647 | 59 | 153 | 2.0 | 4.0 | 0.00 | 0.00 | 0.00 | 37 | 1019.2 |
| 20260502015621 | 60 | 185 | 2.0 | 3.0 | 0.00 | 0.00 | 0.00 | 35 | 1019.1 |
| 20260502014622 | 60 | 211 | 2.0 | 3.0 | 0.00 | 0.00 | 0.00 | 32 | 1019.1 |
| 20260502013624 | 61 | 250 | 1.0 | 3.0 | 0.00 | 0.00 | 0.00 | 33 | 1019.1 |
| 20260502012645 | 62 | 287 | 2.0 | 4.0 | 0.00 | 0.00 | 0.00 | 30 | 1019.1 |
| 20260502011625 | 63 | 291 | 3.0 | 6.0 | 0.00 | 0.00 | 0.00 | 30 | 1019.1 |
| 20260502010626 | 64 | 296 | 6.0 | 8.0 | 0.00 | 0.00 | 0.00 | 30 | 1019.1 |
| 20260502005638 | 65 | 331 | 5.0 | 10.0 | 0.00 | 0.00 | 0.00 | 26 | 1019.2 |
| 20260502004633 | 65 | 342 | 7.0 | 11.0 | 0.00 | 0.00 | 0.00 | 26 | 1019.1 |
| 20260502003634 | 65 | 342 | 5.0 | 10.0 | 0.00 | 0.00 | 0.00 | 25 | 1019.1 |
| 20260502002633 | 65 | 360 | 6.0 | 10.0 | 0.00 | 0.00 | 0.00 | 25 | 1019.2 |
| 20260502001634 | 65 | 13 | 5.0 | 10.0 | 0.00 | 0.00 | 0.00 | 26 | 1019.2 |
| 20260502000639 | 65 | 319 | 5.0 | 9.0 | 0.00 | 0.00 | 0.00 | 26 | 1019.1 |
| 20260501235628 | 65 | 15 | 5.0 | 10.0 | 0.00 | 0.00 | 0.00 | 25 | 1019.2 |
| 20260501234626 | 65 | 11 | 8.0 | 13.0 | 0.00 | 0.00 | 0.00 | 26 | 1019.3 |
| 20260501233625 | 65 | 346 | 7.0 | 12.0 | 0.00 | 0.00 | 0.00 | 26 | 1019.2 |
| 20260501232628 | 65 | 5 | 6.0 | 11.0 | 0.00 | 0.00 | 0.00 | 24 | 1019.3 |
| 20260501231630 | 65 | 331 | 6.0 | 11.0 | 0.00 | 0.00 | 0.00 | 25 | 1019.3 |
| 20260501230629 | 65 | 19 | 4.0 | 12.0 | 0.00 | 0.00 | 0.00 | 24 | 1019.3 |
| 20260501225618 | 64 | 56 | 6.0 | 12.0 | 0.00 | 0.00 | 0.00 | 24 | 1019.5 |
| 20260501224617 | 64 | 333 | 6.0 | 11.0 | 0.00 | 0.00 | 0.00 | 25 | 1019.6 |
| 20260501223617 | 64 | 72 | 5.0 | 11.0 | 0.00 | 0.00 | 0.00 | 24 | 1019.7 |
| 20260501222621 | 64 | 335 | 7.0 | 13.0 | 0.00 | 0.00 | 0.00 | 26 | 1019.8 |
| 20260501221621 | 64 | 5 | 6.0 | 11.0 | 0.00 | 0.00 | 0.00 | 26 | 1019.9 |
| 20260501220620 | 63 | 30 | 6.0 | 13.0 | 0.00 | 0.00 | 0.00 | 27 | 1019.9 |
| 20260501215630 | 63 | 5 | 4.0 | 13.0 | 0.00 | 0.00 | 0.00 | 27 | 1020.1 |
| 20260501214629 | 63 | 27 | 8.0 | 13.0 | 0.00 | 0.00 | 0.00 | 27 | 1020.1 |
| 20260501213630 | 63 | 5 | 8.0 | 13.0 | 0.00 | 0.00 | 0.00 | 28 | 1020.1 |
| 20260501212628 | 63 | 346 | 7.0 | 12.0 | 0.00 | 0.00 | 0.00 | 27 | 1020.4 |
| 20260501211627 | 63 | 5 | 8.0 | 13.0 | 0.00 | 0.00 | 0.00 | 29 | 1020.4 |
| 20260501210615 | 62 | 36 | 7.0 | 12.0 | 0.00 | 0.00 | 0.00 | 28 | 1020.4 |
| 20260501205630 | 62 | 339 | 7.0 | 11.0 | 0.00 | 0.00 | 0.00 | 26 | 1020.5 |
| 20260501204630 | 62 | 35 | 7.0 | 12.0 | 0.00 | 0.00 | 0.00 | 27 | 1020.6 |
| 20260501203630 | 62 | 71 | 9.0 | 12.0 | 0.00 | 0.00 | 0.00 | 30 | 1020.7 |
| 20260501202629 | 62 | 51 | 3.0 | 9.0 | 0.00 | 0.00 | 0.00 | 30 | 1020.7 |
| 20260501201629 | 62 | 301 | 3.0 | 9.0 | 0.00 | 0.00 | 0.00 | 29 | 1020.7 |
| 20260501200633 | 62 | 53 | 1.0 | 17.0 | 0.00 | 0.00 | 0.00 | 28 | 1020.7 |
| 20260501195644 | 61 | 13 | 4.0 | 12.0 | 0.00 | 0.00 | 0.00 | 27 | 1021.0 |
| 20260501194623 | 61 | 37 | 1.0 | 9.0 | 0.00 | 0.00 | 0.00 | 28 | 1020.9 |
| 20260501193623 | 61 | 277 | 7.0 | 10.0 | 0.00 | 0.00 | 0.00 | 28 | 1021.0 |
| 20260501192623 | 60 | 38 | 5.0 | 12.0 | 0.00 | 0.00 | 0.00 | 31 | 1021.0 |
| 20260501191622 | 60 | 30 | 2.0 | 9.0 | 0.00 | 0.00 | 0.00 | 33 | 1021.2 |
| 20260501190621 | 60 | 37 | 2.0 | 6.0 | 0.00 | 0.00 | 0.00 | 31 | 1021.2 |
| 20260501185619 | 59 | 11 | 4.0 | 12.0 | 0.00 | 0.00 | 0.00 | 30 | 1021.3 |
| 20260501184617 | 59 | 277 | 3.0 | 7.0 | 0.00 | 0.00 | 0.00 | 30 | 1021.3 |
| 20260501183621 | 59 | 250 | 4.0 | 7.0 | 0.00 | 0.00 | 0.00 | 30 | 1021.4 |
| 20260501182642 | 58 | 237 | 2.0 | 8.0 | 0.00 | 0.00 | 0.00 | 30 | 1021.5 |
| 20260501181619 | 58 | 242 | 4.0 | 12.0 | 0.00 | 0.00 | 0.00 | 29 | 1021.6 |
| 20260501180632 | 58 | 134 | 3.0 | 8.0 | 0.00 | 0.00 | 0.00 | 29 | 1021.5 |
| 20260501175622 | 58 | 42 | 4.0 | 7.0 | 0.00 | 0.00 | 0.00 | 29 | 1021.7 |
| 20260501174642 | 58 | 30 | 2.0 | 5.0 | 0.00 | 0.00 | 0.00 | 32 | 1021.7 |
| 20260501173617 | 57 | 50 | 3.0 | 7.0 | 0.00 | 0.00 | 0.00 | 29 | 1022.0 |
| 20260501172622 | 56 | 194 | 3.0 | 8.0 | 0.00 | 0.00 | 0.00 | 30 | 1022.0 |
| 20260501171619 | 56 | 207 | 3.0 | 5.0 | 0.00 | 0.00 | 0.00 | 30 | 1022.0 |
| 20260501170619 | 55 | 201 | 3.0 | 5.0 | 0.00 | 0.00 | 0.00 | 29 | 1022.2 |
| 20260501165629 | 55 | 273 | 2.0 | 5.0 | 0.00 | 0.00 | 0.00 | 31 | 1022.2 |
| 20260501164628 | 54 | 17 | 2.0 | 8.0 | 0.00 | 0.00 | 0.00 | 37 | 1022.0 |
| 20260501163630 | 54 | 245 | 0.0 | 5.0 | 0.00 | 0.00 | 0.00 | 36 | 1022.2 |
| 20260501162629 | 53 | 308 | 2.0 | 5.0 | 0.00 | 0.00 | 0.00 | 38 | 1022.2 |
| 20260501161633 | 53 | 252 | 2.0 | 6.0 | 0.00 | 0.00 | 0.00 | 37 | 1022.3 |
| 20260501160631 | 53 | 275 | 1.0 | 4.0 | 0.00 | 0.00 | 0.00 | 43 | 1022.3 |
| 20260501155621 | 52 | 58 | 2.0 | 4.0 | 0.00 | 0.00 | 0.00 | 42 | 1022.3 |
| 20260501154617 | 50 | 68 | 1.0 | 4.0 | 0.00 | 0.00 | 0.00 | 45 | 1022.3 |
| 20260501153616 | 50 | 73 | 2.0 | 6.0 | 0.00 | 0.00 | 0.00 | 48 | 1022.3 |
| 20260501152614 | 49 | 5 | 3.0 | 5.0 | 0.00 | 0.00 | 0.00 | 54 | 1022.4 |